Time;durP1;ratioP1;P1;durP2;ratioP2;P2;SDS_P1;SDS_P2;PMS_P1;PMS_P2;Temp;Humidity;BMP_temperature;BMP_pressure;BME280_temperature;BME280_humidity;BME280_pressure;Samples;Min_cycle;Max_cycle;Signal;HPM_P1;HPM_P2
2023/03/05 00:01:51;;;;;;;4.10;3.30;;;7.50;86.90;;;;;;5028116;28;20718;-74
2023/03/05 00:04:17;;;;;;;3.77;2.93;;;7.50;86.90;;;;;;5029406;28;20184;-74
2023/03/05 00:06:43;;;;;;;5.60;3.77;;;7.50;86.70;;;;;;5031173;28;20565;-74
2023/03/05 00:09:09;;;;;;;4.23;3.40;;;7.50;86.30;;;;;;5031351;28;20207;-75
2023/03/05 00:11:34;;;;;;;7.33;3.40;;;7.50;86.30;;;;;;5030527;28;20215;-74
2023/03/05 00:14:03;;;;;;;6.43;4.13;;;7.50;86.40;;;;;;5029814;28;20711;-74
2023/03/05 00:16:29;;;;;;;6.43;3.77;;;7.50;86.50;;;;;;5028538;28;20230;-70
2023/03/05 00:18:57;;;;;;;3.83;3.03;;;7.50;86.60;;;;;;5032129;28;20227;-74
2023/03/05 00:21:32;;;;;;;3.73;3.33;;;7.40;86.60;;;;;;5030038;28;20557;-74
2023/03/05 00:24:02;;;;;;;5.57;3.30;;;7.40;86.70;;;;;;5026236;28;20241;-74
2023/03/05 00:26:29;;;;;;;4.87;3.00;;;7.40;86.80;;;;;;5034180;28;20187;-74
2023/03/05 00:28:56;;;;;;;6.90;3.30;;;7.40;86.60;;;;;;5030130;28;20195;-73
2023/03/05 00:31:25;;;;;;;7.33;3.43;;;7.40;86.80;;;;;;5031575;28;20933;-75
2023/03/05 00:33:52;;;;;;;4.73;3.17;;;7.40;87.00;;;;;;5030066;28;20223;-74
2023/03/05 00:36:18;;;;;;;5.80;2.93;;;7.40;87.00;;;;;;5030245;28;20203;-73
2023/03/05 00:38:44;;;;;;;5.93;3.33;;;7.40;87.00;;;;;;5033590;28;20222;-74
2023/03/05 00:41:09;;;;;;;3.70;3.17;;;7.40;86.90;;;;;;5029842;28;20184;-74
2023/03/05 00:43:35;;;;;;;4.67;3.80;;;7.40;86.70;;;;;;5029749;28;20184;-75
2023/03/05 00:46:01;;;;;;;6.97;3.40;;;7.50;86.50;;;;;;5029784;28;20729;-74
2023/03/05 00:48:26;;;;;;;5.27;3.17;;;7.50;86.40;;;;;;5024817;28;20189;-74
2023/03/05 00:50:52;;;;;;;5.80;3.83;;;7.40;86.40;;;;;;5029420;28;20223;-75
2023/03/05 00:53:18;;;;;;;5.17;3.37;;;7.50;86.30;;;;;;5028530;28;20247;-74
2023/03/05 00:55:43;;;;;;;4.57;3.40;;;7.50;86.20;;;;;;5029231;28;20184;-74
2023/03/05 00:58:09;;;;;;;3.63;3.27;;;7.50;86.00;;;;;;5031874;28;20205;-74
2023/03/05 01:00:35;;;;;;;3.40;3.10;;;7.50;85.60;;;;;;5030632;28;20623;-74
2023/03/05 01:03:01;;;;;;;4.30;2.90;;;7.50;85.50;;;;;;5034346;28;20253;-74
2023/03/05 01:05:27;;;;;;;4.43;2.97;;;7.50;85.40;;;;;;5029944;28;20212;-74
2023/03/05 01:07:53;;;;;;;7.70;3.00;;;7.50;85.20;;;;;;5030921;28;20322;-74
2023/03/05 01:10:20;;;;;;;4.73;3.40;;;7.40;85.10;;;;;;5030483;28;20214;-74
2023/03/05 01:12:45;;;;;;;4.83;3.17;;;7.40;85.20;;;;;;5030663;28;20208;-74
2023/03/05 01:15:11;;;;;;;3.13;2.93;;;7.40;85.10;;;;;;5030491;28;20215;-74
2023/03/05 01:17:37;;;;;;;2.80;2.30;;;7.40;84.90;;;;;;5033362;28;20191;-73
2023/03/05 01:20:04;;;;;;;4.00;2.43;;;7.30;85.00;;;;;;5034167;28;20180;-74
2023/03/05 01:22:30;;;;;;;6.23;2.67;;;7.40;84.60;;;;;;5028457;28;20199;-73
2023/03/05 01:24:55;;;;;;;5.30;2.97;;;7.30;84.90;;;;;;5029283;28;20952;-73
2023/03/05 01:27:21;;;;;;;3.30;2.37;;;7.30;84.90;;;;;;5029171;28;20754;-73
2023/03/05 01:29:47;;;;;;;4.30;2.63;;;7.30;84.30;;;;;;5023598;28;20195;-74
2023/03/05 01:32:13;;;;;;;4.93;2.77;;;7.30;84.30;;;;;;5031706;28;20938;-74
2023/03/05 01:34:40;;;;;;;5.40;3.17;;;7.30;84.10;;;;;;5031917;28;20184;-74
2023/03/05 01:37:06;;;;;;;3.10;2.80;;;7.30;84.20;;;;;;5033291;28;20188;-75
2023/03/05 01:39:32;;;;;;;5.40;2.70;;;7.20;84.10;;;;;;5028571;28;20208;-74
2023/03/05 01:41:58;;;;;;;4.70;3.50;;;7.20;84.20;;;;;;5028648;28;20215;-74
2023/03/05 01:44:27;;;;;;;3.60;2.53;;;7.20;84.10;;;;;;5030167;28;20205;-74
2023/03/05 01:46:53;;;;;;;3.00;2.67;;;7.20;84.20;;;;;;5024628;28;20188;-74
2023/03/05 01:49:23;;;;;;;3.50;2.73;;;7.20;84.00;;;;;;5027088;28;20191;-74
2023/03/05 01:52:16;;;;;;;4.83;2.70;;;7.20;83.90;;;;;;5026105;28;20216;-75
2023/03/05 01:54:45;;;;;;;2.60;2.23;;;7.20;83.80;;;;;;5027529;28;20219;-74
2023/03/05 01:57:34;;;;;;;3.53;3.00;;;7.20;83.50;;;;;;5025441;28;20180;-74
2023/03/05 02:00:08;;;;;;;5.80;3.40;;;7.20;83.30;;;;;;5005312;28;20207;-74
2023/03/05 02:02:34;;;;;;;7.43;3.10;;;7.20;83.40;;;;;;5000768;28;20193;-74
2023/03/05 02:05:25;;;;;;;6.37;3.17;;;7.20;83.50;;;;;;5005876;28;20335;-75
2023/03/05 02:07:58;;;;;;;5.53;2.67;;;7.20;83.50;;;;;;5003642;28;20189;-74
2023/03/05 02:10:37;;;;;;;4.93;2.63;;;7.20;83.30;;;;;;5004603;28;20197;-74
2023/03/05 02:13:07;;;;;;;3.57;2.97;;;7.20;83.20;;;;;;5008968;28;20714;-74
2023/03/05 02:15:34;;;;;;;3.03;2.70;;;7.20;83.10;;;;;;4991917;28;20177;-74
2023/03/05 02:18:00;;;;;;;7.07;2.20;;;7.10;83.30;;;;;;5005107;28;20192;-74
2023/03/05 02:20:29;;;;;;;3.33;2.57;;;7.10;83.20;;;;;;5006156;28;20185;-74
2023/03/05 02:22:54;;;;;;;2.87;2.17;;;7.10;83.10;;;;;;5006540;28;20188;-73
2023/03/05 02:25:24;;;;;;;2.70;2.50;;;7.10;83.40;;;;;;5002487;28;20197;-73
2023/03/05 02:28:11;;;;;;;5.43;2.60;;;7.10;83.60;;;;;;5006152;28;20251;-73
2023/03/05 02:30:37;;;;;;;2.87;2.53;;;7.10;83.70;;;;;;5003834;28;20247;-73
2023/03/05 02:33:03;;;;;;;4.73;2.73;;;7.10;83.70;;;;;;5003197;28;20181;-73
2023/03/05 03:45:41;;;;;;;4.10;2.00;;;5.40;89.80;;;;;;4219570;22;2173313;-73
2023/03/05 03:48:06;;;;;;;3.63;2.60;;;5.50;89.70;;;;;;5066893;28;20182;-73
2023/03/05 03:50:32;;;;;;;4.30;2.17;;;5.50;89.60;;;;;;5072684;28;20247;-73
2023/03/05 03:53:02;;;;;;;6.43;2.73;;;5.70;89.30;;;;;;5054913;28;20675;-72
2023/03/05 03:55:30;;;;;;;4.07;2.53;;;5.80;88.90;;;;;;5046553;28;20182;-72
2023/03/05 03:57:55;;;;;;;6.10;2.63;;;5.90;88.50;;;;;;5071674;28;20208;-71
2023/03/05 04:00:21;;;;;;;6.20;3.30;;;6.00;88.20;;;;;;5068410;28;20179;-72
2023/03/05 04:02:47;;;;;;;7.03;3.33;;;6.10;87.70;;;;;;5067386;28;20264;-72
2023/03/05 04:05:13;;;;;;;5.70;2.57;;;6.10;87.50;;;;;;5072213;28;20723;-71
2023/03/05 04:07:38;;;;;;;3.23;2.67;;;6.20;87.40;;;;;;5068054;28;20193;-72
2023/03/05 04:10:04;;;;;;;5.60;3.40;;;6.20;87.30;;;;;;5067760;28;20175;-73
2023/03/05 04:12:30;;;;;;;7.50;3.23;;;6.30;87.20;;;;;;5070908;28;20186;-72
2023/03/05 04:14:56;;;;;;;5.10;3.33;;;6.30;87.30;;;;;;5064198;28;20265;-72
2023/03/05 04:17:21;;;;;;;6.20;3.10;;;6.30;87.20;;;;;;5064314;28;20187;-73
2023/03/05 04:19:47;;;;;;;5.97;3.50;;;6.30;86.70;;;;;;5064655;28;20232;-72
2023/03/05 04:22:16;;;;;;;5.73;3.27;;;6.30;86.40;;;;;;5070967;28;20566;-72
2023/03/05 04:24:42;;;;;;;7.00;4.07;;;6.30;86.40;;;;;;5070813;28;20241;-72
2023/03/05 04:27:09;;;;;;;9.87;3.73;;;6.30;86.60;;;;;;5066446;28;20179;-73
2023/03/05 04:29:35;;;;;;;5.63;3.27;;;6.20;86.30;;;;;;5071363;28;20572;-73
2023/03/05 04:32:00;;;;;;;7.03;3.20;;;6.20;86.50;;;;;;5066519;28;20179;-72
2023/03/05 04:34:26;;;;;;;6.73;3.00;;;6.10;86.50;;;;;;5068820;28;20194;-73
2023/03/05 04:36:52;;;;;;;5.30;3.10;;;6.10;86.60;;;;;;5069245;28;20182;-72
2023/03/05 04:39:19;;;;;;;5.37;2.90;;;6.10;86.40;;;;;;5067807;28;20187;-72
2023/03/05 04:41:46;;;;;;;8.47;3.67;;;6.10;86.30;;;;;;5069098;28;20179;-71
2023/03/05 04:44:12;;;;;;;5.60;3.43;;;6.10;86.30;;;;;;5069593;28;20207;-72
2023/03/05 04:46:38;;;;;;;5.70;3.20;;;6.10;86.20;;;;;;5062634;28;20285;-72
2023/03/05 04:49:03;;;;;;;3.43;3.10;;;6.00;86.50;;;;;;5071091;28;20179;-72
2023/03/05 04:51:29;;;;;;;6.80;4.10;;;6.00;86.50;;;;;;5069669;28;20187;-72
2023/03/05 04:53:55;;;;;;;6.37;2.67;;;6.10;86.60;;;;;;5069514;28;20183;-72
2023/03/05 04:56:20;;;;;;;6.90;3.90;;;6.10;86.40;;;;;;5059609;28;20191;-72
2023/03/05 04:58:46;;;;;;;9.30;3.90;;;6.20;86.20;;;;;;5056166;28;20190;-72
2023/03/05 05:01:12;;;;;;;6.97;3.27;;;6.20;86.10;;;;;;5052121;28;20187;-72
2023/03/05 05:03:38;;;;;;;4.73;3.10;;;6.10;86.00;;;;;;5037132;28;20289;-72
2023/03/05 05:06:04;;;;;;;6.33;3.70;;;6.00;86.20;;;;;;5052403;28;20230;-72
2023/03/05 05:08:29;;;;;;;4.20;2.93;;;6.10;86.30;;;;;;5056340;28;20206;-72
2023/03/05 05:11:01;;;;;;;4.53;2.80;;;6.10;86.30;;;;;;5055563;28;20248;-71
2023/03/05 05:13:27;;;;;;;7.03;3.97;;;6.10;86.20;;;;;;5057488;28;20183;-72
2023/03/05 05:15:53;;;;;;;5.73;3.13;;;5.90;86.00;;;;;;5052473;28;20263;-73
2023/03/05 05:18:19;;;;;;;3.57;3.30;;;5.90;86.30;;;;;;5054630;28;20739;-73
2023/03/05 05:20:45;;;;;;;7.33;3.33;;;5.90;86.20;;;;;;5054269;28;20203;-73
2023/03/05 05:23:11;;;;;;;4.37;3.43;;;5.90;86.10;;;;;;5053485;28;20211;-73
2023/03/05 05:25:36;;;;;;;6.60;3.30;;;5.90;85.40;;;;;;5034397;28;20191;-72
2023/03/05 05:28:02;;;;;;;5.03;3.47;;;5.90;85.40;;;;;;5054940;28;20179;-73
2023/03/05 05:30:28;;;;;;;3.63;3.23;;;5.90;85.10;;;;;;5036929;28;21023;-73
2023/03/05 05:32:53;;;;;;;8.10;3.00;;;6.00;85.10;;;;;;5056157;28;20206;-72
2023/03/05 05:35:19;;;;;;;10.17;3.93;;;5.90;84.80;;;;;;5054708;28;20261;-72
2023/03/05 05:37:44;;;;;;;4.77;2.73;;;5.90;84.80;;;;;;5051219;28;20310;-74
2023/03/05 05:40:11;;;;;;;7.53;3.03;;;6.00;84.40;;;;;;5053860;28;20206;-73
2023/03/05 05:42:37;;;;;;;6.40;3.20;;;6.00;84.40;;;;;;5050205;28;20768;-74
2023/03/05 05:45:03;;;;;;;5.90;2.53;;;6.10;84.00;;;;;;5056486;28;20238;-74
2023/03/05 05:47:28;;;;;;;4.37;2.87;;;6.00;84.10;;;;;;5053719;28;20187;-72
2023/03/05 05:49:54;;;;;;;3.53;3.13;;;6.00;84.10;;;;;;5050028;28;20180;-72
2023/03/05 05:52:20;;;;;;;4.93;3.07;;;6.00;83.80;;;;;;5051410;28;20183;-72
2023/03/05 05:54:46;;;;;;;6.70;2.40;;;6.00;83.70;;;;;;5052784;28;20184;-71
2023/03/05 05:57:12;;;;;;;5.30;3.00;;;6.10;83.60;;;;;;5051254;28;20896;-71
2023/03/05 05:59:39;;;;;;;7.07;2.93;;;6.20;83.20;;;;;;5030411;28;20680;-71
2023/03/05 06:02:06;;;;;;;2.73;2.43;;;6.20;82.70;;;;;;5048761;28;20187;-71
2023/03/05 06:04:33;;;;;;;7.93;3.30;;;6.20;81.80;;;;;;5036874;28;20215;-71
2023/03/05 06:06:59;;;;;;;4.97;2.80;;;6.10;82.20;;;;;;5052800;28;20683;-72
2023/03/05 06:09:25;;;;;;;7.97;2.70;;;6.20;82.20;;;;;;5055449;28;20199;-70
2023/03/05 06:11:51;;;;;;;3.50;2.17;;;6.30;81.90;;;;;;5052676;28;20232;-71
2023/03/05 06:14:16;;;;;;;6.50;2.57;;;6.30;81.30;;;;;;5035825;28;20190;-72
2023/03/05 06:16:42;;;;;;;4.60;2.27;;;6.30;81.00;;;;;;5033934;28;20180;-72
2023/03/05 06:19:11;;;;;;;3.27;2.33;;;6.10;80.60;;;;;;5053153;28;20258;-72
2023/03/05 06:21:37;;;;;;;3.60;2.87;;;6.20;81.00;;;;;;5052281;28;20188;-72
2023/03/05 06:24:03;;;;;;;2.80;2.23;;;6.30;80.40;;;;;;5027203;28;20204;-72
2023/03/05 06:26:28;;;;;;;6.90;2.60;;;6.30;79.80;;;;;;5036407;28;20664;-72
2023/03/05 06:28:54;;;;;;;11.40;2.40;;;6.30;80.30;;;;;;5030094;28;20569;-72
2023/03/05 06:31:24;;;;;;;3.80;2.33;;;6.30;79.50;;;;;;5053376;28;20187;-72
2023/03/05 06:33:51;;;;;;;3.13;2.37;;;6.20;79.10;;;;;;5037300;28;20198;-72
2023/03/05 06:36:18;;;;;;;7.10;3.30;;;6.30;79.40;;;;;;5055012;28;20236;-72
2023/03/05 06:38:44;;;;;;;5.40;2.53;;;6.50;79.40;;;;;;5052279;28;20271;-72
2023/03/05 06:41:13;;;;;;;3.77;2.23;;;6.50;79.00;;;;;;5037551;28;20180;-72
2023/03/05 06:43:41;;;;;;;4.13;2.97;;;6.60;79.00;;;;;;5033895;28;20239;-72
2023/03/05 06:46:12;;;;;;;4.43;2.87;;;6.60;78.40;;;;;;5029284;28;20209;-73
2023/03/05 06:48:38;;;;;;;2.87;2.20;;;6.70;77.60;;;;;;5049411;28;20187;-71
2023/03/05 06:51:04;;;;;;;5.57;2.63;;;6.70;77.90;;;;;;5050597;28;20180;-72
2023/03/05 06:53:30;;;;;;;4.30;2.67;;;6.70;77.10;;;;;;5030280;28;20222;-74
2023/03/05 06:55:56;;;;;;;5.80;2.60;;;6.70;77.70;;;;;;5052205;28;20212;-72
2023/03/05 06:58:22;;;;;;;6.13;3.40;;;6.80;77.20;;;;;;5055143;28;20618;-71
2023/03/05 07:00:48;;;;;;;5.73;2.60;;;6.90;77.00;;;;;;5037036;28;20176;-71
2023/03/05 07:03:14;;;;;;;5.40;2.23;;;7.00;76.20;;;;;;5057903;28;21794;-72
2023/03/05 07:05:41;;;;;;;6.37;2.53;;;7.10;76.10;;;;;;5034898;28;20179;-72
2023/03/05 07:08:07;;;;;;;5.10;2.73;;;7.30;75.70;;;;;;5049823;28;20235;-72
2023/03/05 07:10:38;;;;;;;7.13;3.43;;;7.40;75.00;;;;;;5043726;28;20636;-72
2023/03/05 07:13:04;;;;;;;6.00;2.13;;;7.50;74.70;;;;;;5037037;28;20187;-73
2023/03/05 07:15:30;;;;;;;5.50;3.20;;;7.60;74.70;;;;;;5051279;28;20180;-73
2023/03/05 07:17:56;;;;;;;4.53;3.23;;;7.70;74.70;;;;;;5028877;28;20271;-72
2023/03/05 07:20:21;;;;;;;7.80;3.17;;;7.80;74.60;;;;;;5036966;28;20179;-73
2023/03/05 07:22:47;;;;;;;7.17;1.77;;;7.90;74.30;;;;;;5027317;28;20810;-73
2023/03/05 07:25:18;;;;;;;1.47;1.23;;;8.00;74.00;;;;;;5049456;28;20235;-72
2023/03/05 07:27:43;;;;;;;2.37;2.17;;;8.00;73.70;;;;;;5055582;28;20710;-73
2023/03/05 07:30:10;;;;;;;1.83;1.70;;;8.10;73.70;;;;;;5030870;28;20179;-74
2023/03/05 07:32:35;;;;;;;2.83;2.63;;;8.20;73.40;;;;;;5050373;28;20179;-74
2023/03/05 07:35:01;;;;;;;2.77;1.93;;;8.20;73.40;;;;;;5050588;28;20641;-74
2023/03/05 07:37:27;;;;;;;1.93;1.70;;;8.20;73.50;;;;;;5048454;28;20267;-73
2023/03/05 07:39:52;;;;;;;6.13;2.17;;;8.20;73.80;;;;;;5031939;28;20656;-74
2023/03/05 07:42:18;;;;;;;4.43;2.30;;;8.30;73.80;;;;;;5032636;28;20726;-73
2023/03/05 07:44:44;;;;;;;6.47;2.33;;;8.50;73.60;;;;;;5048869;28;20589;-74
2023/03/05 07:47:09;;;;;;;5.47;2.33;;;8.70;73.30;;;;;;5032708;28;20194;-74
2023/03/05 07:49:35;;;;;;;6.80;2.33;;;8.90;73.20;;;;;;5030891;28;20215;-74
2023/03/05 07:52:01;;;;;;;4.57;2.87;;;9.10;72.50;;;;;;5028895;28;20180;-73
2023/03/05 07:54:27;;;;;;;5.23;2.97;;;;;;;;;;5050654;28;20183;-74
2023/03/05 07:56:54;;;;;;;10.02;2.83;;;9.70;71.80;;;;;;5030059;28;20209;-75
2023/03/05 07:59:19;;;;;;;12.35;3.33;;;10.10;70.70;;;;;;5028976;28;20266;-74
2023/03/05 08:01:45;;;;;;;4.82;3.08;;;10.50;70.20;;;;;;5053882;28;20679;-74
2023/03/05 08:04:11;;;;;;;6.05;3.17;;;11.00;69.30;;;;;;5035471;28;20267;-73
2023/03/05 08:06:40;;;;;;;6.28;3.13;;;11.40;68.70;;;;;;5033802;28;20268;-74
2023/03/05 08:09:06;;;;;;;8.70;3.70;;;11.70;67.00;;;;;;5050521;28;20282;-74
2023/03/05 08:11:32;;;;;;;6.68;3.00;;;11.70;67.10;;;;;;5032285;28;20270;-73
2023/03/05 08:13:58;;;;;;;7.40;4.18;;;11.30;67.80;;;;;;5031733;28;20187;-73
2023/03/05 08:16:25;;;;;;;10.25;3.30;;;11.10;68.30;;;;;;5035564;28;20196;-73
2023/03/05 08:18:54;;;;;;;5.13;3.50;;;10.80;68.30;;;;;;5034465;28;20638;-73
2023/03/05 08:21:29;;;;;;;7.93;3.88;;;10.40;69.10;;;;;;5034974;28;20183;-74
2023/03/05 08:23:56;;;;;;;6.72;3.40;;;10.10;69.80;;;;;;5051038;28;20214;-73
2023/03/05 08:26:27;;;;;;;7.78;3.63;;;10.00;70.20;;;;;;5042635;28;20236;-72
2023/03/05 08:28:53;;;;;;;8.32;3.67;;;9.80;70.80;;;;;;5032133;28;20244;-73
2023/03/05 08:31:22;;;;;;;4.70;3.40;;;9.70;71.20;;;;;;5032989;28;20194;-74
2023/03/05 08:33:50;;;;;;;6.40;3.58;;;9.70;71.60;;;;;;5058193;28;20249;-74
2023/03/05 08:36:16;;;;;;;6.40;4.47;;;9.70;71.20;;;;;;5034641;28;20213;-73
2023/03/05 08:38:43;;;;;;;7.50;3.83;;;9.70;71.40;;;;;;5037206;28;20210;-73
2023/03/05 08:41:09;;;;;;;7.07;3.83;;;9.60;71.50;;;;;;5037239;28;20206;-72
2023/03/05 08:43:35;;;;;;;8.52;3.92;;;9.60;72.10;;;;;;5034287;28;20183;-74
2023/03/05 08:46:02;;;;;;;7.93;3.50;;;9.80;71.30;;;;;;5035353;28;20187;-73
2023/03/05 08:48:28;;;;;;;8.48;3.60;;;9.90;71.50;;;;;;5052191;28;20206;-73
2023/03/05 08:50:55;;;;;;;12.07;3.90;;;9.80;70.70;;;;;;5033541;28;20618;-73
2023/03/05 08:53:21;;;;;;;3.83;3.22;;;9.70;70.80;;;;;;5028899;28;20188;-74
2023/03/05 08:55:54;;;;;;;11.32;4.00;;;9.50;70.30;;;;;;5051732;28;20182;-74
2023/03/05 08:58:20;;;;;;;6.13;3.25;;;9.10;71.50;;;;;;5034200;28;20183;-74
2023/03/05 09:00:45;;;;;;;4.22;3.65;;;9.10;71.40;;;;;;5051655;28;20596;-75
2023/03/05 09:03:11;;;;;;;5.10;3.10;;;9.30;71.10;;;;;;5049434;28;20175;-74
2023/03/05 09:05:36;;;;;;;5.93;3.95;;;9.40;70.70;;;;;;5051845;28;20219;-74
2023/03/05 09:08:02;;;;;;;6.15;3.72;;;9.70;70.30;;;;;;5056331;28;20199;-76
2023/03/05 09:10:28;;;;;;;5.00;3.30;;;10.00;69.60;;;;;;5052379;28;20222;-73
2023/03/05 09:12:53;;;;;;;11.27;4.13;;;10.20;67.80;;;;;;5051083;28;20190;-74
2023/03/05 09:15:19;;;;;;;4.25;3.35;;;10.30;68.00;;;;;;5052272;28;20730;-74
2023/03/05 09:17:45;;;;;;;12.98;3.35;;;10.50;67.80;;;;;;5049682;28;20656;-74
2023/03/05 09:20:12;;;;;;;7.18;3.67;;;10.60;67.20;;;;;;5030823;28;20751;-74
2023/03/05 09:22:39;;;;;;;4.07;2.83;;;10.90;66.50;;;;;;5045726;28;20184;-76
2023/03/05 09:25:05;;;;;;;8.23;3.88;;;11.20;66.40;;;;;;5051158;28;20219;-77
2023/03/05 09:27:36;;;;;;;6.22;3.08;;;11.40;65.50;;;;;;5052648;28;20191;-74
2023/03/05 09:30:03;;;;;;;6.40;3.78;;;11.50;65.10;;;;;;5047675;28;20184;-73
2023/03/05 09:32:29;;;;;;;5.50;3.47;;;11.60;64.50;;;;;;5033057;28;20309;-75
2023/03/05 09:34:54;;;;;;;5.45;3.15;;;11.50;64.40;;;;;;5055706;28;20295;-74
2023/03/05 09:37:20;;;;;;;6.63;3.63;;;11.40;63.80;;;;;;5048180;28;20262;-75
2023/03/05 09:39:45;;;;;;;5.18;3.92;;;11.20;64.00;;;;;;5053276;28;20203;-75
2023/03/05 09:42:37;;;;;;;6.60;4.10;;;11.00;64.60;;;;;;5051454;28;20733;-74
2023/03/05 09:45:16;;;;;;;2.95;2.78;;;11.00;65.10;;;;;;4983073;28;20752;-74
2023/03/05 09:48:21;;;;;;;5.53;3.88;;;10.90;63.70;;;;;;4982269;28;20186;-75
2023/03/05 09:50:51;;;;;;;4.80;2.83;;;10.70;63.90;;;;;;4966356;28;20626;-74
2023/03/05 09:53:20;;;;;;;6.75;3.50;;;10.50;64.30;;;;;;4983419;28;20239;-75
2023/03/05 09:55:51;;;;;;;5.78;3.33;;;10.40;64.20;;;;;;4983670;28;20216;-74
2023/03/05 09:58:42;;;;;;;5.15;2.97;;;10.20;64.10;;;;;;4984558;28;20186;-74
2023/03/05 10:01:33;;;;;;;8.25;2.92;;;10.50;64.60;;;;;;4982837;28;20193;-74
2023/03/05 10:04:03;;;;;;;3.42;1.95;;;11.10;63.40;;;;;;4983316;28;20622;-74
2023/03/05 10:06:49;;;;;;;2.72;2.53;;;12.00;63.20;;;;;;4983913;28;20185;-74
2023/03/05 10:09:47;;;;;;;6.90;2.95;;;13.20;61.60;;;;;;4984596;28;20189;-74
2023/03/05 10:12:26;;;;;;;3.92;3.17;;;14.10;57.70;;;;;;4927365;29;20756;-74
2023/03/05 10:14:53;;;;;;;9.73;4.47;;;14.30;57.60;;;;;;4925691;29;20199;-75
2023/03/05 10:17:30;;;;;;;4.53;3.33;;;14.40;56.90;;;;;;4924299;29;20215;-75
2023/03/05 10:20:32;;;;;;;11.07;3.45;;;14.00;57.30;;;;;;4931206;29;20710;-76
2023/03/05 10:23:07;;;;;;;5.18;3.63;;;13.80;57.80;;;;;;4940973;28;20200;-75
2023/03/05 10:25:38;;;;;;;6.43;3.60;;;13.80;58.40;;;;;;4936716;28;20728;-74
2023/03/05 10:28:16;;;;;;;7.47;4.32;;;13.80;58.50;;;;;;4954133;28;20194;-75
2023/03/05 10:30:53;;;;;;;5.53;3.80;;;13.60;58.60;;;;;;4935530;28;20198;-75
2023/03/05 10:33:41;;;;;;;6.57;3.90;;;13.80;57.30;;;;;;4953089;28;20194;-74
2023/03/05 10:36:10;;;;;;;3.90;3.50;;;13.90;57.80;;;;;;4952465;28;20226;-75
2023/03/05 10:38:49;;;;;;;6.07;3.97;;;14.20;56.80;;;;;;4950824;28;20191;-76
2023/03/05 10:41:48;;;;;;;5.88;3.03;;;14.40;56.20;;;;;;4950348;28;20178;-75
2023/03/05 10:44:30;;;;;;;6.53;4.00;;;14.70;55.20;;;;;;4951886;28;20216;-75
2023/03/05 10:46:57;;;;;;;7.70;3.65;;;15.00;54.90;;;;;;4954802;28;20936;-75
2023/03/05 10:49:31;;;;;;;4.05;3.28;;;15.70;54.80;;;;;;5011637;28;20198;-76
2023/03/05 10:52:07;;;;;;;5.45;3.78;;;16.40;52.80;;;;;;5053185;28;20178;-76
2023/03/05 10:54:34;;;;;;;5.25;3.53;;;16.70;52.70;;;;;;5036389;28;20175;-76
2023/03/05 10:57:12;;;;;;;6.53;3.75;;;16.60;51.90;;;;;;5050242;28;20225;-75
2023/03/05 10:59:45;;;;;;;6.90;3.78;;;16.10;51.50;;;;;;5056105;28;20214;-76
2023/03/05 11:02:11;;;;;;;5.40;3.88;;;15.50;52.70;;;;;;5050232;28;20226;-75
2023/03/05 11:04:38;;;;;;;6.35;4.25;;;15.30;53.60;;;;;;5049610;28;20239;-75
2023/03/05 11:07:31;;;;;;;5.80;3.83;;;14.90;53.90;;;;;;5051317;28;20184;-75
2023/03/05 11:10:02;;;;;;;4.15;3.75;;;14.50;54.50;;;;;;5045418;28;20187;-75
2023/03/05 11:12:34;;;;;;;4.95;3.58;;;14.20;55.20;;;;;;5049612;28;20587;-75
2023/03/05 11:15:26;;;;;;;8.45;3.78;;;14.00;56.30;;;;;;5046378;28;20179;-76
2023/03/05 11:18:20;;;;;;;5.35;3.58;;;13.90;55.70;;;;;;5051370;28;20202;-75
2023/03/05 11:20:46;;;;;;;4.70;2.92;;;13.70;55.90;;;;;;5027714;28;20188;-74
2023/03/05 11:23:16;;;;;;;7.57;4.18;;;13.50;56.70;;;;;;5049837;28;20652;-74
2023/03/05 11:25:48;;;;;;;4.97;3.10;;;13.30;56.30;;;;;;5034288;28;20303;-75
2023/03/05 11:28:19;;;;;;;4.20;3.13;;;13.10;56.80;;;;;;5050319;28;20642;-74
2023/03/05 11:30:58;;;;;;;4.90;2.85;;;12.80;57.20;;;;;;5053938;28;20175;-74
2023/03/05 11:33:24;;;;;;;8.50;3.22;;;12.60;57.20;;;;;;5042880;28;20188;-74
2023/03/05 11:35:52;;;;;;;2.63;2.42;;;12.40;57.70;;;;;;5049432;28;20568;-76
2023/03/05 11:38:23;;;;;;;2.60;2.40;;;12.30;58.30;;;;;;5049233;28;20189;-76
2023/03/05 11:40:50;;;;;;;5.20;2.83;;;12.30;58.30;;;;;;5045997;28;20190;-75
2023/03/05 11:43:19;;;;;;;5.32;2.75;;;12.30;58.20;;;;;;5049766;28;20709;-76
2023/03/05 11:45:48;;;;;;;4.63;2.88;;;12.30;58.70;;;;;;5049023;28;20242;-74
2023/03/05 11:48:23;;;;;;;3.08;2.85;;;12.30;58.50;;;;;;5046988;28;20625;-75
2023/03/05 11:50:57;;;;;;;3.70;2.95;;;12.40;58.50;;;;;;5043565;28;20170;-77
2023/03/05 11:53:29;;;;;;;5.55;3.15;;;12.30;58.90;;;;;;5047885;28;20765;-75
2023/03/05 11:55:59;;;;;;;6.78;3.15;;;12.30;59.20;;;;;;5053592;28;20175;-73
2023/03/05 11:58:38;;;;;;;4.72;3.10;;;12.50;58.80;;;;;;5046692;28;20179;-77
2023/03/05 12:01:15;;;;;;;4.32;2.67;;;12.60;58.80;;;;;;5044502;28;20648;-75
2023/03/05 12:03:42;;;;;;;5.80;2.97;;;13.00;59.10;;;;;;5046857;28;20186;-76
2023/03/05 12:06:36;;;;;;;4.13;3.10;;;13.40;57.90;;;;;;5051924;28;20872;-78
2023/03/05 12:09:28;;;;;;;9.43;2.75;;;13.90;58.30;;;;;;5055466;28;20918;-77
2023/03/05 12:12:05;;;;;;;4.20;2.70;;;14.50;54.60;;;;;;5044948;28;20214;-77
2023/03/05 12:14:43;;;;;;;6.78;3.33;;;14.20;54.70;;;;;;5037077;28;20176;-78
2023/03/05 12:17:19;;;;;;;5.50;2.75;;;14.40;55.10;;;;;;5037554;28;20579;-77
2023/03/05 12:20:06;;;;;;;5.35;3.42;;;14.70;54.60;;;;;;5053000;28;20199;-76
2023/03/05 12:22:40;;;;;;;5.80;3.30;;;14.60;54.90;;;;;;5055854;28;20265;-76
2023/03/05 12:25:24;;;;;;;4.40;3.70;;;14.50;55.50;;;;;;5035517;28;20295;-77
2023/03/05 12:27:50;;;;;;;9.82;4.45;;;14.20;56.40;;;;;;5051328;28;20169;-74
2023/03/05 12:30:36;;;;;;;4.30;3.45;;;14.00;57.10;;;;;;5038776;28;20183;-76
2023/03/05 12:33:04;;;;;;;6.20;3.28;;;14.00;57.50;;;;;;4971193;28;20222;-76
2023/03/05 12:35:36;;;;;;;5.10;3.25;;;14.00;57.30;;;;;;4955358;28;20686;-76
2023/03/05 12:38:12;;;;;;;3.15;2.80;;;14.10;56.60;;;;;;4967728;28;20979;-75
2023/03/05 12:40:38;;;;;;;5.35;3.15;;;13.90;56.10;;;;;;4974052;28;20194;-75
2023/03/05 12:43:28;;;;;;;2.90;2.47;;;13.70;56.80;;;;;;4970789;28;20225;-75
2023/03/05 12:46:28;;;;;;;4.18;3.33;;;13.70;56.50;;;;;;4917125;29;20216;-75
2023/03/05 12:48:54;;;;;;;4.30;2.97;;;13.70;57.20;;;;;;4904942;29;20188;-76
2023/03/05 12:51:50;;;;;;;7.05;3.33;;;13.60;56.70;;;;;;4929247;29;20204;-75
2023/03/05 12:54:21;;;;;;;4.13;2.78;;;13.50;57.20;;;;;;4868440;29;20663;-75
2023/03/05 12:56:48;;;;;;;3.17;2.72;;;13.20;56.90;;;;;;4867461;29;20201;-75
2023/03/05 12:59:18;;;;;;;3.72;2.97;;;13.20;57.80;;;;;;4853616;29;20198;-76
2023/03/05 13:02:01;;;;;;;4.38;3.03;;;13.30;57.30;;;;;;4853408;29;20193;-76
2023/03/05 13:04:34;;;;;;;2.67;2.47;;;13.20;56.90;;;;;;4869082;29;20333;-75
2023/03/05 13:07:11;;;;;;;2.83;2.50;;;13.10;57.50;;;;;;4853044;29;21089;-75
2023/03/05 13:09:37;;;;;;;5.65;2.92;;;12.80;57.80;;;;;;4866255;29;20231;-75
2023/03/05 13:12:10;;;;;;;3.67;3.35;;;12.60;58.30;;;;;;4908768;29;20668;-75
2023/03/05 13:14:41;;;;;;;3.00;2.60;;;12.60;59.90;;;;;;4924386;29;20182;-74
2023/03/05 13:17:43;;;;;;;5.45;3.03;;;12.50;59.80;;;;;;4921405;29;20479;-75
2023/03/05 13:20:39;;;;;;;5.38;3.22;;;12.40;59.00;;;;;;4867951;29;20233;-76
2023/03/05 13:23:20;;;;;;;4.07;2.55;;;12.30;59.30;;;;;;4890116;29;20212;-75
2023/03/05 13:25:55;;;;;;;3.28;2.83;;;12.30;59.00;;;;;;4892375;29;20216;-75
2023/03/05 13:28:21;;;;;;;2.92;2.63;;;12.10;59.50;;;;;;4905706;29;20507;-76
2023/03/05 13:30:52;;;;;;;3.22;2.67;;;12.10;59.50;;;;;;4905624;29;20515;-75
2023/03/05 13:33:24;;;;;;;5.75;2.55;;;12.00;59.70;;;;;;4930835;29;20184;-76
2023/03/05 13:35:50;;;;;;;3.50;2.83;;;11.90;59.30;;;;;;4918341;29;20195;-76
2023/03/05 13:38:24;;;;;;;4.35;3.15;;;11.80;59.50;;;;;;4930846;29;20263;-76
2023/03/05 13:41:15;;;;;;;3.65;3.20;;;11.70;59.80;;;;;;4934339;29;20282;-75
2023/03/05 13:43:56;;;;;;;4.10;3.47;;;11.70;60.00;;;;;;4931965;29;20256;-74
2023/03/05 13:46:23;;;;;;;6.30;3.10;;;11.70;60.20;;;;;;4930599;29;20207;-74
2023/03/05 13:48:49;;;;;;;3.17;2.88;;;11.70;59.90;;;;;;4931079;29;20292;-74
2023/03/05 13:51:14;;;;;;;3.92;2.78;;;11.70;60.00;;;;;;4932474;29;20251;-74
2023/03/05 13:53:40;;;;;;;5.20;3.22;;;11.70;60.00;;;;;;4932326;29;20623;-73
2023/03/05 13:56:17;;;;;;;5.80;3.25;;;11.70;59.70;;;;;;4972333;28;20740;-74
2023/03/05 13:58:51;;;;;;;4.32;2.33;;;11.70;60.20;;;;;;5054718;28;20189;-74
2023/03/05 14:01:27;;;;;;;5.93;3.80;;;11.70;60.10;;;;;;5050563;28;20198;-74
2023/03/05 14:03:57;;;;;;;5.35;2.83;;;11.70;59.90;;;;;;5028870;28;20218;-74
2023/03/05 14:06:27;;;;;;;3.55;3.10;;;11.60;60.40;;;;;;5053269;28;20207;-74
2023/03/05 14:09:00;;;;;;;5.68;2.90;;;11.50;60.30;;;;;;5052593;28;20176;-74
2023/03/05 14:11:26;;;;;;;3.20;2.58;;;11.40;60.10;;;;;;5052025;28;20597;-74
2023/03/05 14:14:13;;;;;;;6.00;4.00;;;11.30;60.40;;;;;;5047814;28;20180;-74
2023/03/05 14:16:39;;;;;;;3.95;3.30;;;11.20;60.50;;;;;;5050812;28;20629;-74
2023/03/05 14:19:07;;;;;;;6.10;3.50;;;11.10;60.80;;;;;;5036013;28;20175;-74